createdAt,value
2023-01-13T00:01:24.004Z,0.02
2023-01-13T00:03:52.664Z,-0.07
2023-01-13T00:06:26.098Z,-0.09
2023-01-13T00:08:55.177Z,-0.14
2023-01-13T00:11:24.653Z,-0.17
2023-01-13T00:13:52.973Z,-0.20
2023-01-13T00:16:22.184Z,-0.24
2023-01-13T00:18:51.855Z,-0.24
2023-01-13T00:21:23.632Z,-0.26
2023-01-13T00:23:54.154Z,-0.24
2023-01-13T00:26:23.977Z,-0.23
2023-01-13T00:28:52.489Z,-0.25
2023-01-13T00:31:22.377Z,-0.24
2023-01-13T00:33:51.349Z,-0.26
2023-01-13T00:36:22.285Z,-0.28
2023-01-13T00:38:50.730Z,-0.26
2023-01-13T00:41:21.256Z,-0.29
2023-01-13T00:43:49.574Z,-0.32
2023-01-13T00:46:20.494Z,-0.35
2023-01-13T00:48:49.897Z,-0.37
2023-01-13T00:51:20.422Z,-0.35
2023-01-13T00:53:51.468Z,-0.31
2023-01-13T00:56:38.543Z,-0.28
2023-01-13T00:59:08.336Z,-0.18
2023-01-13T01:01:36.733Z,-0.14
2023-01-13T01:04:05.140Z,-0.17
2023-01-13T01:06:33.387Z,-0.22
2023-01-13T01:09:03.047Z,-0.14
2023-01-13T01:11:33.042Z,-0.16
2023-01-13T01:14:04.174Z,-0.15
2023-01-13T01:16:34.381Z,-0.14
2023-01-13T01:19:03.895Z,-0.10
2023-01-13T01:21:33.074Z,-0.08
2023-01-13T01:24:04.873Z,-0.02
2023-01-13T01:26:33.394Z,-0.01
2023-01-13T01:29:02.734Z,0.01
2023-01-13T01:31:32.774Z,0.03
2023-01-13T01:34:02.337Z,0.02
2023-01-13T01:36:31.272Z,-0.02
2023-01-13T01:39:00.835Z,0.00
2023-01-13T01:41:33.237Z,-0.05
2023-01-13T01:44:07.402Z,-0.07
2023-01-13T01:46:38.173Z,-0.03
2023-01-13T01:49:15.321Z,0.00
2023-01-13T01:51:47.657Z,0.02
2023-01-13T01:54:21.353Z,0.04
2023-01-13T01:56:51.553Z,-0.01
2023-01-13T01:59:20.105Z,0.01
2023-01-13T02:01:49.773Z,0.02
2023-01-13T02:04:21.928Z,0.04
2023-01-13T02:06:51.419Z,0.10
2023-01-13T02:09:19.733Z,0.08
2023-01-13T02:12:05.366Z,0.11
2023-01-13T02:14:36.492Z,0.11
2023-01-13T02:17:20.371Z,0.14
2023-01-13T02:20:18.842Z,0.14
2023-01-13T02:23:34.923Z,0.16
2023-01-13T02:26:31.851Z,0.10
2023-01-13T02:29:31.338Z,0.09
2023-01-13T02:32:08.825Z,-0.06
2023-01-13T02:34:41.841Z,-0.04
2023-01-13T02:37:18.455Z,-0.04
2023-01-13T02:39:53.688Z,-0.02
2023-01-13T02:42:45.874Z,-0.02
2023-01-13T02:45:18.958Z,0.02
2023-01-13T02:47:50.968Z,0.04
2023-01-13T02:50:23.574Z,0.08
2023-01-13T02:52:56.260Z,0.06
2023-01-13T02:55:28.079Z,0.03
2023-01-13T02:57:59.722Z,-0.03
2023-01-13T03:00:29.518Z,-0.04
2023-01-13T03:02:59.309Z,-0.17
2023-01-13T03:05:27.602Z,-0.22
2023-01-13T03:08:10.794Z,-0.27
2023-01-13T03:10:52.030Z,-0.31
2023-01-13T03:13:34.695Z,-0.35
2023-01-13T03:16:14.625Z,-0.31
2023-01-13T03:18:51.790Z,-0.31
2023-01-13T03:21:26.874Z,-0.31
2023-01-13T03:24:02.325Z,-0.27
2023-01-13T03:26:42.393Z,-0.33
2023-01-13T03:29:18.450Z,-0.31
2023-01-13T03:31:54.998Z,-0.31
2023-01-13T03:34:30.289Z,-0.32
2023-01-13T03:37:00.837Z,-0.27
2023-01-13T03:39:33.491Z,-0.23
2023-01-13T03:42:06.924Z,-0.23
2023-01-13T03:44:38.390Z,-0.24
2023-01-13T03:47:14.496Z,-0.20
2023-01-13T03:49:51.033Z,-0.16
2023-01-13T03:52:23.869Z,-0.14
2023-01-13T03:54:56.867Z,-0.13
2023-01-13T03:57:31.043Z,-0.07
2023-01-13T04:00:04.093Z,-0.01
2023-01-13T04:02:44.954Z,0.00
2023-01-13T04:05:15.657Z,0.01
2023-01-13T04:07:51.384Z,0.02
2023-01-13T04:10:25.035Z,0.03
2023-01-13T04:13:05.278Z,0.08
2023-01-13T04:15:37.713Z,0.03
2023-01-13T04:18:18.855Z,0.00
2023-01-13T04:20:50.747Z,-0.01
2023-01-13T04:23:20.074Z,0.04
2023-01-13T04:25:49.026Z,-0.05
2023-01-13T04:28:17.338Z,-0.04
2023-01-13T04:30:46.409Z,0.00
2023-01-13T04:33:15.538Z,0.03
2023-01-13T04:35:45.018Z,0.03
2023-01-13T04:38:16.048Z,0.06
2023-01-13T04:40:44.409Z,0.06
2023-01-13T04:43:12.785Z,0.05
2023-01-13T04:45:40.907Z,0.06
2023-01-13T04:48:09.256Z,-0.03
2023-01-13T04:50:37.542Z,-0.13
2023-01-13T04:53:05.873Z,-0.17
2023-01-13T04:55:35.460Z,-0.24
2023-01-13T04:58:04.839Z,-0.26
2023-01-13T05:00:33.046Z,-0.23
2023-01-13T05:03:01.591Z,-0.21
2023-01-13T05:05:31.010Z,-0.15
2023-01-13T05:07:59.449Z,-0.15
2023-01-13T05:10:28.095Z,-0.11
2023-01-13T05:13:14.876Z,-0.13
2023-01-13T05:16:01.510Z,-0.19
2023-01-13T05:18:32.072Z,-0.15
2023-01-13T05:21:00.255Z,-0.20
2023-01-13T05:23:46.577Z,-0.19
2023-01-13T05:26:14.853Z,-0.17
2023-01-13T05:28:44.404Z,-0.20
2023-01-13T05:31:15.023Z,-0.25
2023-01-13T05:33:43.228Z,-0.29
2023-01-13T05:36:11.550Z,-0.32
2023-01-13T05:38:39.720Z,-0.36
2023-01-13T05:41:25.095Z,-0.42
2023-01-13T05:43:54.624Z,-0.46
2023-01-13T05:46:22.888Z,-0.52
2023-01-13T05:48:51.021Z,-0.56
2023-01-13T05:51:19.831Z,-0.54
2023-01-13T05:53:47.993Z,-0.54
2023-01-13T05:56:18.118Z,-0.51
2023-01-13T05:58:46.272Z,-0.44
2023-01-13T06:01:15.820Z,-0.42
2023-01-13T06:03:43.965Z,-0.42
2023-01-13T06:06:12.107Z,-0.40
2023-01-13T06:08:40.288Z,-0.37
2023-01-13T06:11:08.970Z,-0.37
2023-01-13T06:13:37.162Z,-0.35
2023-01-13T06:16:05.696Z,-0.40
2023-01-13T06:18:35.241Z,-0.39
2023-01-13T06:21:03.441Z,-0.47
2023-01-13T06:23:35.156Z,-0.43
2023-01-13T06:26:09.707Z,-0.41
2023-01-13T06:28:37.847Z,-0.42
2023-01-13T06:31:08.748Z,-0.41
2023-01-13T06:33:40.396Z,-0.36
2023-01-13T06:36:13.853Z,-0.27
2023-01-13T06:38:46.552Z,-0.18
2023-01-13T06:41:15.255Z,-0.15
2023-01-13T06:43:42.418Z,-0.07
2023-01-13T06:46:10.520Z,0.03
2023-01-13T06:48:40.290Z,0.14
2023-01-13T06:51:08.445Z,0.21
2023-01-13T06:53:36.618Z,0.25
2023-01-13T06:56:04.930Z,0.25
2023-01-13T06:58:33.046Z,0.19
2023-01-13T07:01:02.813Z,0.16
2023-01-13T07:03:31.269Z,0.13
2023-01-13T07:06:02.326Z,0.11
2023-01-13T07:08:30.516Z,0.07
2023-01-13T07:11:01.582Z,0.03
2023-01-13T07:13:47.327Z,0.04
2023-01-13T07:16:15.554Z,0.13
2023-01-13T07:18:43.685Z,0.19
2023-01-13T07:21:13.822Z,0.24
2023-01-13T07:23:43.020Z,0.34
2023-01-13T07:26:12.398Z,0.49
2023-01-13T07:28:41.219Z,0.60
2023-01-13T07:31:16.301Z,0.75
2023-01-13T07:33:44.891Z,0.77
2023-01-13T07:36:15.322Z,0.87
2023-01-13T07:38:44.656Z,0.94
2023-01-13T07:41:33.093Z,1.10
2023-01-13T07:44:05.031Z,1.28
2023-01-13T07:46:33.580Z,1.45
2023-01-13T07:49:01.693Z,1.60
2023-01-13T07:51:31.907Z,1.75
2023-01-13T07:54:00.106Z,1.89
2023-01-13T07:56:28.258Z,1.92
2023-01-13T07:58:56.390Z,1.98
2023-01-13T08:01:24.651Z,1.97
2023-01-13T08:03:52.804Z,1.97
2023-01-13T08:06:21.025Z,2.07
2023-01-13T08:08:50.874Z,2.05
2023-01-13T08:11:19.604Z,1.91
2023-01-13T08:13:48.919Z,2.02
2023-01-13T08:16:17.394Z,2.09
2023-01-13T08:18:45.570Z,2.16
2023-01-13T08:21:15.780Z,2.16
2023-01-13T08:23:45.349Z,2.20
2023-01-13T08:26:17.373Z,2.08
2023-01-13T08:28:46.105Z,2.08
2023-01-13T08:31:17.103Z,2.09
2023-01-13T08:33:45.820Z,2.17
2023-01-13T08:36:14.546Z,2.21
2023-01-13T08:38:42.920Z,2.25
2023-01-13T08:41:12.151Z,2.32
2023-01-13T08:43:41.706Z,2.34
2023-01-13T08:46:09.957Z,2.36
2023-01-13T08:48:38.186Z,2.42
2023-01-13T08:51:08.977Z,2.40
2023-01-13T08:53:37.470Z,2.43
2023-01-13T08:56:11.060Z,2.47
2023-01-13T08:58:39.203Z,2.42
2023-01-13T09:01:10.277Z,2.34
2023-01-13T09:03:39.264Z,2.30
2023-01-13T09:06:07.701Z,2.29
2023-01-13T09:08:35.993Z,2.26
2023-01-13T09:11:24.578Z,2.26
2023-01-13T09:13:52.056Z,2.32
2023-01-13T09:16:22.024Z,2.39
2023-01-13T09:18:50.139Z,2.48
2023-01-13T09:21:20.034Z,2.54
2023-01-13T09:23:48.273Z,2.58
2023-01-13T09:26:19.594Z,2.66
2023-01-13T09:28:47.726Z,2.70
2023-01-13T09:31:16.022Z,2.78
2023-01-13T09:34:02.748Z,2.87
2023-01-13T09:36:30.912Z,2.98
2023-01-13T09:38:59.331Z,2.98
2023-01-13T09:41:44.270Z,2.95
2023-01-13T09:44:18.068Z,2.98
2023-01-13T09:46:52.569Z,2.90
2023-01-13T09:49:24.982Z,2.77
2023-01-13T09:52:00.040Z,2.83
2023-01-13T09:54:35.171Z,2.85
2023-01-13T09:57:03.952Z,2.86
2023-01-13T09:59:36.582Z,2.88
2023-01-13T10:02:18.311Z,2.94
2023-01-13T10:05:03.843Z,2.96
2023-01-13T10:07:35.346Z,2.91
2023-01-13T10:10:09.344Z,2.86
2023-01-13T10:12:55.186Z,2.97
2023-01-13T10:15:25.999Z,3.02
2023-01-13T10:18:01.102Z,3.14
2023-01-13T10:20:40.191Z,3.26
2023-01-13T10:23:25.691Z,3.32
2023-01-13T10:26:05.323Z,3.31
2023-01-13T10:28:33.491Z,3.41
2023-01-13T10:31:03.585Z,3.40
2023-01-13T10:33:31.875Z,3.44
2023-01-13T10:36:03.164Z,3.50
2023-01-13T10:38:59.720Z,3.45
2023-01-13T10:41:29.280Z,3.51
2023-01-13T10:44:03.685Z,3.59
2023-01-13T10:46:33.498Z,3.57
2023-01-13T10:49:03.565Z,3.45
2023-01-13T10:51:44.923Z,3.45
2023-01-13T10:54:22.483Z,3.54
2023-01-13T10:56:51.487Z,3.51
2023-01-13T10:59:24.216Z,3.54
2023-01-13T11:01:59.538Z,3.33
2023-01-13T11:04:31.744Z,3.35
2023-01-13T11:07:04.093Z,3.41
2023-01-13T11:09:33.796Z,3.52
2023-01-13T11:12:03.198Z,3.47
2023-01-13T11:14:39.836Z,3.51
2023-01-13T11:17:17.603Z,3.58
2023-01-13T11:19:51.865Z,3.54
2023-01-13T11:22:29.704Z,3.58
2023-01-13T11:25:02.637Z,3.58
2023-01-13T11:27:42.742Z,3.58
2023-01-13T11:30:32.847Z,3.62
2023-01-13T11:33:22.274Z,3.74
2023-01-13T11:35:59.765Z,3.75
2023-01-13T11:38:35.089Z,3.71
2023-01-13T11:41:12.176Z,3.47
2023-01-13T11:43:47.942Z,3.53
2023-01-13T11:46:16.134Z,3.60
2023-01-13T11:48:44.767Z,3.56
2023-01-13T11:51:29.759Z,3.61
2023-01-13T11:54:22.701Z,3.52
2023-01-13T11:57:24.356Z,3.46
2023-01-13T12:00:19.027Z,3.50
2023-01-13T12:02:57.103Z,3.60
2023-01-13T12:05:35.188Z,3.57
2023-01-13T12:08:19.855Z,3.60
2023-01-13T12:11:02.673Z,3.45
2023-01-13T12:13:41.581Z,3.35
2023-01-13T12:16:23.800Z,3.39
2023-01-13T12:19:21.427Z,3.38
2023-01-13T12:22:04.875Z,3.42
2023-01-13T12:24:39.482Z,3.36
2023-01-13T12:27:18.174Z,3.35
2023-01-13T12:29:50.333Z,3.27
2023-01-13T12:32:22.049Z,3.24
2023-01-13T12:35:05.314Z,3.27
2023-01-13T12:37:38.801Z,3.36
2023-01-13T12:40:22.450Z,3.34
2023-01-13T12:43:17.873Z,3.25
2023-01-13T12:45:46.067Z,3.29
2023-01-13T12:48:49.393Z,3.27
2023-01-13T12:51:24.760Z,3.30
2023-01-13T12:53:53.288Z,3.28
2023-01-13T12:56:42.218Z,3.32
2023-01-13T12:59:50.714Z,3.41
2023-01-13T13:02:34.877Z,3.41
2023-01-13T13:05:40.283Z,3.40
2023-01-13T13:08:23.954Z,3.35
2023-01-13T13:11:07.943Z,3.37
2023-01-13T13:13:44.667Z,3.38
2023-01-13T13:16:46.417Z,3.36
2023-01-13T13:19:45.964Z,3.40
2023-01-13T13:22:39.815Z,3.39
2023-01-13T13:25:27.430Z,3.38
2023-01-13T13:28:18.977Z,3.41
2023-01-13T13:31:05.626Z,3.45
2023-01-13T13:33:51.290Z,3.35
2023-01-13T13:36:42.837Z,3.28
2023-01-13T13:39:48.243Z,3.29
2023-01-13T13:42:38.217Z,3.17
2023-01-13T13:45:34.410Z,3.27
2023-01-13T13:48:20.083Z,3.31
2023-01-13T13:50:51.008Z,3.30
2023-01-13T13:53:21.286Z,3.32
2023-01-13T13:55:59.669Z,3.28
2023-01-13T13:58:29.970Z,3.26
2023-01-13T14:00:59.490Z,3.30
2023-01-13T14:03:31.512Z,3.37
2023-01-13T14:06:02.863Z,3.41
2023-01-13T14:08:51.248Z,3.40
2023-01-13T14:11:27.738Z,3.47
2023-01-13T14:14:03.751Z,3.52
2023-01-13T14:16:33.449Z,3.45
2023-01-13T14:19:02.452Z,3.51
2023-01-13T14:21:32.848Z,3.58
2023-01-13T14:24:10.843Z,3.62
2023-01-13T14:26:39.434Z,3.56
2023-01-13T14:29:07.926Z,3.61
2023-01-13T14:31:36.342Z,3.59
2023-01-13T14:34:31.301Z,3.57
2023-01-13T14:36:57.905Z,3.60
2023-01-13T14:39:33.330Z,3.61
2023-01-13T14:42:01.830Z,3.63
2023-01-13T14:44:32.096Z,3.65
2023-01-13T14:47:02.373Z,3.66
2023-01-13T14:49:36.254Z,3.67
2023-01-13T14:52:16.202Z,3.72
2023-01-13T14:54:49.612Z,3.72
2023-01-13T14:57:25.799Z,3.74
2023-01-13T15:00:06.442Z,3.68
2023-01-13T15:03:01.984Z,3.65
2023-01-13T15:05:42.852Z,3.63
2023-01-13T15:08:42.600Z,3.64
2023-01-13T15:11:25.067Z,3.64
2023-01-13T15:14:01.334Z,3.62
2023-01-13T15:16:33.877Z,3.60
2023-01-13T15:19:03.459Z,3.61
2023-01-13T15:21:31.609Z,3.61
2023-01-13T15:24:01.246Z,3.61
2023-01-13T15:26:31.541Z,3.66
2023-01-13T15:29:01.754Z,3.62
2023-01-13T15:31:30.551Z,3.56
2023-01-13T15:34:00.836Z,3.51
2023-01-13T15:36:31.252Z,3.53
2023-01-13T15:39:02.103Z,3.50
2023-01-13T15:41:59.414Z,3.43
2023-01-13T15:44:44.888Z,3.54
2023-01-13T15:47:14.624Z,3.48
2023-01-13T15:49:45.413Z,3.46
2023-01-13T15:52:21.563Z,3.43
2023-01-13T15:54:51.915Z,3.43
2023-01-13T15:57:24.261Z,3.43
2023-01-13T15:59:54.390Z,3.41
2023-01-13T16:02:23.658Z,3.42
2023-01-13T16:04:54.009Z,3.42
2023-01-13T16:07:23.674Z,3.39
2023-01-13T16:09:54.104Z,3.46
2023-01-13T16:12:22.556Z,3.47
2023-01-13T16:14:50.877Z,3.44
2023-01-13T16:17:20.972Z,3.44
2023-01-13T16:19:49.686Z,3.44
2023-01-13T16:22:18.954Z,3.47
2023-01-13T16:24:48.356Z,3.50
2023-01-13T16:27:20.224Z,3.48
2023-01-13T16:29:49.554Z,3.47
2023-01-13T16:32:18.349Z,3.48
2023-01-13T16:34:46.922Z,3.48
2023-01-13T16:37:21.468Z,3.48
2023-01-13T16:39:49.947Z,3.44
2023-01-13T16:42:19.713Z,3.46
2023-01-13T16:44:48.510Z,3.43
2023-01-13T16:47:18.478Z,3.44
2023-01-13T16:49:47.165Z,3.48
2023-01-13T16:52:15.627Z,3.52
2023-01-13T16:54:43.825Z,3.41
2023-01-13T16:57:14.257Z,3.39
2023-01-13T16:59:43.891Z,3.38
2023-01-13T17:02:14.843Z,3.38
2023-01-13T17:04:43.607Z,3.36
2023-01-13T17:07:18.083Z,3.33
2023-01-13T17:09:46.357Z,3.35
2023-01-13T17:12:14.597Z,3.36
2023-01-13T17:14:45.087Z,3.39
2023-01-13T17:17:23.397Z,3.44
2023-01-13T17:19:52.799Z,3.46
2023-01-13T17:22:21.843Z,3.44
2023-01-13T17:24:49.998Z,3.39
2023-01-13T17:27:18.911Z,3.41
2023-01-13T17:29:49.243Z,3.43
2023-01-13T17:32:19.230Z,3.36
2023-01-13T17:34:47.406Z,3.34
2023-01-13T17:37:15.836Z,3.31
2023-01-13T17:39:46.554Z,3.29
2023-01-13T17:42:15.668Z,3.19
2023-01-13T17:44:44.266Z,3.25
2023-01-13T17:47:14.043Z,3.34
2023-01-13T17:49:42.614Z,3.38
2023-01-13T17:52:11.143Z,3.40
2023-01-13T17:54:43.174Z,3.45
2023-01-13T17:57:11.711Z,3.48
2023-01-13T17:59:41.868Z,3.51
2023-01-13T18:02:14.362Z,3.56
2023-01-13T18:04:43.032Z,3.62
2023-01-13T18:07:17.209Z,3.61
2023-01-13T18:09:45.878Z,3.63
2023-01-13T18:12:14.677Z,3.64
2023-01-13T18:14:42.818Z,3.64
2023-01-13T18:17:11.724Z,3.63
2023-01-13T18:19:59.240Z,3.65
2023-01-13T18:22:45.279Z,3.63
2023-01-13T18:25:31.247Z,3.64
2023-01-13T18:28:01.339Z,3.68
2023-01-13T18:30:29.519Z,3.72
2023-01-13T18:32:58.233Z,3.72
2023-01-13T18:35:28.346Z,3.70
2023-01-13T18:37:57.159Z,3.71
2023-01-13T18:40:25.735Z,3.76
2023-01-13T18:42:54.497Z,3.75
2023-01-13T18:45:25.090Z,3.80
2023-01-13T18:47:54.400Z,3.77
2023-01-13T18:50:23.296Z,3.77
2023-01-13T18:52:53.516Z,3.78
2023-01-13T18:55:23.501Z,3.83
2023-01-13T18:57:53.307Z,3.82
2023-01-13T19:00:24.329Z,3.81
2023-01-13T19:05:35.925Z,3.80
2023-01-13T19:08:06.965Z,3.85
2023-01-13T19:10:37.000Z,3.85
2023-01-13T19:13:05.303Z,3.83
2023-01-13T19:15:34.003Z,3.84
2023-01-13T19:18:02.178Z,3.86
2023-01-13T19:20:30.392Z,3.81
2023-01-13T19:22:59.207Z,3.82
2023-01-13T19:25:29.639Z,3.80
2023-01-13T19:27:58.688Z,3.83
2023-01-13T19:30:29.545Z,3.84
2023-01-13T19:32:57.893Z,3.86
2023-01-13T19:35:27.210Z,3.82
2023-01-13T19:37:56.532Z,3.79
2023-01-13T19:40:25.744Z,3.79
2023-01-13T19:43:13.258Z,3.81
2023-01-13T19:45:41.808Z,3.91
2023-01-13T19:48:16.377Z,3.91
2023-01-13T19:50:45.461Z,3.91
2023-01-13T19:53:18.602Z,3.85
2023-01-13T19:55:48.817Z,3.81
2023-01-13T19:58:20.729Z,3.76
2023-01-13T20:00:53.274Z,3.81
2023-01-13T20:03:25.673Z,3.81
2023-01-13T20:05:55.562Z,3.81
2023-01-13T20:08:24.802Z,3.81
2023-01-13T20:11:14.276Z,3.85
2023-01-13T20:13:43.955Z,3.86
2023-01-13T20:16:13.066Z,3.90
2023-01-13T20:18:42.448Z,3.92
2023-01-13T20:21:11.573Z,3.92
2023-01-13T20:23:40.880Z,3.94
2023-01-13T20:26:09.791Z,3.95
2023-01-13T20:28:39.773Z,3.87
2023-01-13T20:31:12.400Z,3.83
2023-01-13T20:33:41.463Z,3.81
2023-01-13T20:36:17.131Z,3.74
2023-01-13T20:38:46.371Z,3.74
2023-01-13T20:41:32.174Z,3.71
2023-01-13T20:44:01.349Z,3.65
2023-01-13T20:46:31.397Z,3.68
2023-01-13T20:48:59.934Z,3.68
2023-01-13T20:51:32.194Z,3.69
2023-01-13T20:54:00.809Z,3.67
2023-01-13T20:56:29.843Z,3.69
2023-01-13T20:58:58.981Z,3.62
2023-01-13T21:01:28.504Z,3.60
2023-01-13T21:03:59.381Z,3.65
2023-01-13T21:06:28.326Z,3.61
2023-01-13T21:08:58.059Z,3.60
2023-01-13T21:11:54.260Z,3.53
2023-01-13T21:14:41.788Z,3.61
2023-01-13T21:17:33.511Z,3.59
2023-01-13T21:20:04.316Z,3.60
2023-01-13T21:22:32.765Z,3.52
2023-01-13T21:25:02.549Z,3.48
2023-01-13T21:27:31.131Z,3.55
2023-01-13T21:29:59.548Z,3.56
2023-01-13T21:32:27.758Z,3.57
2023-01-13T21:34:56.140Z,3.59
2023-01-13T21:37:25.760Z,3.62
2023-01-13T21:39:54.190Z,3.65
2023-01-13T21:42:42.772Z,3.64
2023-01-13T21:45:29.640Z,3.68
2023-01-13T21:47:58.274Z,3.67
2023-01-13T21:50:28.497Z,3.65
2023-01-13T21:53:02.176Z,3.63
2023-01-13T21:55:32.498Z,3.63
2023-01-13T21:58:02.376Z,3.66
2023-01-13T22:00:33.197Z,3.67
2023-01-13T22:03:04.339Z,3.70
2023-01-13T22:05:33.330Z,3.74
2023-01-13T22:08:02.926Z,3.72
2023-01-13T22:10:32.073Z,3.70
2023-01-13T22:13:21.578Z,3.73
2023-01-13T22:15:49.733Z,3.72
2023-01-13T22:18:18.437Z,3.71
2023-01-13T22:20:46.777Z,3.56
2023-01-13T22:23:16.356Z,3.39
2023-01-13T22:25:44.504Z,3.37
2023-01-13T22:28:14.021Z,3.40
2023-01-13T22:30:42.593Z,3.47
2023-01-13T22:33:10.972Z,3.51
2023-01-13T22:35:39.089Z,3.57
2023-01-13T22:38:07.206Z,3.58
2023-01-13T22:40:36.743Z,3.55
2023-01-13T22:43:04.829Z,3.57
2023-01-13T22:45:33.004Z,3.49
2023-01-13T22:48:01.170Z,3.51
2023-01-13T22:50:29.682Z,3.57
2023-01-13T22:52:59.377Z,3.61
2023-01-13T22:55:27.853Z,3.63
2023-01-13T22:57:57.442Z,3.69
2023-01-13T23:00:25.846Z,3.74
2023-01-13T23:02:54.059Z,3.73
2023-01-13T23:05:22.149Z,3.77
2023-01-13T23:07:50.415Z,3.78
2023-01-13T23:10:18.674Z,3.84
2023-01-13T23:12:49.015Z,3.89
2023-01-13T23:15:19.849Z,3.82
2023-01-13T23:17:50.287Z,3.76
2023-01-13T23:20:19.393Z,3.78
2023-01-13T23:22:47.808Z,3.80
2023-01-13T23:25:16.030Z,3.76
2023-01-13T23:27:44.117Z,3.72
2023-01-13T23:30:13.256Z,3.68
2023-01-13T23:32:42.763Z,3.67
2023-01-13T23:35:11.294Z,3.60
2023-01-13T23:37:39.429Z,3.62
2023-01-13T23:40:09.844Z,3.59
2023-01-13T23:42:37.962Z,3.62
2023-01-13T23:45:06.973Z,3.59
2023-01-13T23:47:36.321Z,3.58
2023-01-13T23:50:06.395Z,3.46
2023-01-13T23:52:34.495Z,3.40
2023-01-13T23:55:02.693Z,3.43
2023-01-13T23:57:30.848Z,3.47
2023-01-13T23:59:59.044Z,3.52
